sensor_id;sensor_type;location;lat;lon;timestamp;temperature;humidity
11256;HTU21D;5685;52.384;13.420;2022-08-30T00:00:48;22.60;99.90
11256;HTU21D;5685;52.384;13.420;2022-08-30T00:04:02;22.60;99.90
11256;HTU21D;5685;52.384;13.420;2022-08-30T00:07:09;22.60;99.90
11256;HTU21D;5685;52.384;13.420;2022-08-30T00:10:11;22.60;99.90
11256;HTU21D;5685;52.384;13.420;2022-08-30T00:13:13;22.60;99.90
11256;HTU21D;5685;52.384;13.420;2022-08-30T00:16:17;22.60;99.90
11256;HTU21D;5685;52.384;13.420;2022-08-30T00:19:20;22.60;99.90
11256;HTU21D;5685;52.384;13.420;2022-08-30T00:22:24;22.60;99.90
11256;HTU21D;5685;52.384;13.420;2022-08-30T00:25:27;22.60;99.90
11256;HTU21D;5685;52.384;13.420;2022-08-30T00:28:29;22.60;99.90
11256;HTU21D;5685;52.384;13.420;2022-08-30T00:31:33;22.60;99.90
11256;HTU21D;5685;52.384;13.420;2022-08-30T00:34:35;22.60;99.90
11256;HTU21D;5685;52.384;13.420;2022-08-30T00:37:39;22.60;99.90
11256;HTU21D;5685;52.384;13.420;2022-08-30T00:40:43;22.60;99.90
11256;HTU21D;5685;52.384;13.420;2022-08-30T00:43:45;22.60;99.90
11256;HTU21D;5685;52.384;13.420;2022-08-30T00:46:48;22.60;99.90
11256;HTU21D;5685;52.384;13.420;2022-08-30T00:49:53;22.60;99.90
11256;HTU21D;5685;52.384;13.420;2022-08-30T00:53:00;22.60;99.90
11256;HTU21D;5685;52.384;13.420;2022-08-30T00:56:03;22.60;99.90
11256;HTU21D;5685;52.384;13.420;2022-08-30T00:59:07;22.60;99.90
11256;HTU21D;5685;52.384;13.420;2022-08-30T01:02:11;22.60;99.90
11256;HTU21D;5685;52.384;13.420;2022-08-30T01:05:14;22.60;99.90
11256;HTU21D;5685;52.384;13.420;2022-08-30T01:08:18;22.60;99.90
11256;HTU21D;5685;52.384;13.420;2022-08-30T01:11:22;22.60;99.90
11256;HTU21D;5685;52.384;13.420;2022-08-30T01:14:25;22.60;99.90
11256;HTU21D;5685;52.384;13.420;2022-08-30T01:17:27;22.60;99.90
11256;HTU21D;5685;52.384;13.420;2022-08-30T01:20:35;22.60;99.90
11256;HTU21D;5685;52.384;13.420;2022-08-30T01:23:44;22.60;99.90
11256;HTU21D;5685;52.384;13.420;2022-08-30T01:26:48;22.60;99.90
11256;HTU21D;5685;52.384;13.420;2022-08-30T01:29:50;22.60;99.90
11256;HTU21D;5685;52.384;13.420;2022-08-30T01:32:57;22.60;99.90
11256;HTU21D;5685;52.384;13.420;2022-08-30T01:36:03;22.60;99.90
11256;HTU21D;5685;52.384;13.420;2022-08-30T01:39:08;22.60;99.90
11256;HTU21D;5685;52.384;13.420;2022-08-30T01:42:12;22.60;99.90
11256;HTU21D;5685;52.384;13.420;2022-08-30T01:45:16;22.60;99.90
11256;HTU21D;5685;52.384;13.420;2022-08-30T01:48:18;22.60;99.90
11256;HTU21D;5685;52.384;13.420;2022-08-30T01:51:23;22.60;99.90
11256;HTU21D;5685;52.384;13.420;2022-08-30T01:54:30;22.60;99.90
11256;HTU21D;5685;52.384;13.420;2022-08-30T01:57:33;22.60;99.90
11256;HTU21D;5685;52.384;13.420;2022-08-30T02:00:35;22.60;99.90
11256;HTU21D;5685;52.384;13.420;2022-08-30T02:03:38;22.60;99.90
11256;HTU21D;5685;52.384;13.420;2022-08-30T02:06:41;22.60;99.90
11256;HTU21D;5685;52.384;13.420;2022-08-30T02:09:46;22.60;99.90
11256;HTU21D;5685;52.384;13.420;2022-08-30T02:12:49;22.60;99.90
11256;HTU21D;5685;52.384;13.420;2022-08-30T02:15:52;22.60;99.90
11256;HTU21D;5685;52.384;13.420;2022-08-30T02:18:55;22.60;99.90
11256;HTU21D;5685;52.384;13.420;2022-08-30T02:21:58;22.60;99.90
11256;HTU21D;5685;52.384;13.420;2022-08-30T02:25:03;22.60;99.90
11256;HTU21D;5685;52.384;13.420;2022-08-30T02:28:07;22.60;99.90
11256;HTU21D;5685;52.384;13.420;2022-08-30T02:31:09;22.60;99.90
11256;HTU21D;5685;52.384;13.420;2022-08-30T02:34:12;22.60;99.90
11256;HTU21D;5685;52.384;13.420;2022-08-30T02:37:14;22.60;99.90
11256;HTU21D;5685;52.384;13.420;2022-08-30T02:40:19;22.60;99.90
11256;HTU21D;5685;52.384;13.420;2022-08-30T02:43:21;22.60;99.90
11256;HTU21D;5685;52.384;13.420;2022-08-30T02:46:23;22.60;99.90
11256;HTU21D;5685;52.384;13.420;2022-08-30T02:49:25;22.60;99.90
11256;HTU21D;5685;52.384;13.420;2022-08-30T02:52:28;22.60;99.90
11256;HTU21D;5685;52.384;13.420;2022-08-30T02:55:32;22.60;99.90
11256;HTU21D;5685;52.384;13.420;2022-08-30T02:58:34;22.60;99.90
11256;HTU21D;5685;52.384;13.420;2022-08-30T03:01:37;22.60;99.90
11256;HTU21D;5685;52.384;13.420;2022-08-30T03:04:39;22.60;99.90
11256;HTU21D;5685;52.384;13.420;2022-08-30T03:07:44;22.60;99.90
11256;HTU21D;5685;52.384;13.420;2022-08-30T03:10:48;22.60;99.90
11256;HTU21D;5685;52.384;13.420;2022-08-30T03:13:50;22.60;99.90
11256;HTU21D;5685;52.384;13.420;2022-08-30T03:16:52;22.60;99.90
11256;HTU21D;5685;52.384;13.420;2022-08-30T03:19:54;22.60;99.90
11256;HTU21D;5685;52.384;13.420;2022-08-30T03:22:58;22.60;99.90
11256;HTU21D;5685;52.384;13.420;2022-08-30T03:26:01;22.60;99.90
11256;HTU21D;5685;52.384;13.420;2022-08-30T03:29:03;22.60;99.90
11256;HTU21D;5685;52.384;13.420;2022-08-30T03:32:06;22.60;99.90
11256;HTU21D;5685;52.384;13.420;2022-08-30T03:35:08;22.60;99.90
11256;HTU21D;5685;52.384;13.420;2022-08-30T03:38:10;22.60;99.90
11256;HTU21D;5685;52.384;13.420;2022-08-30T03:41:13;22.50;99.90
11256;HTU21D;5685;52.384;13.420;2022-08-30T03:44:16;22.50;99.90
11256;HTU21D;5685;52.384;13.420;2022-08-30T03:47:18;22.50;99.90
11256;HTU21D;5685;52.384;13.420;2022-08-30T03:50:20;22.50;99.90
11256;HTU21D;5685;52.384;13.420;2022-08-30T03:53:23;22.50;99.90
11256;HTU21D;5685;52.384;13.420;2022-08-30T03:56:26;22.50;99.90
11256;HTU21D;5685;52.384;13.420;2022-08-30T03:59:28;22.60;99.90
11256;HTU21D;5685;52.384;13.420;2022-08-30T04:02:31;22.50;99.90
11256;HTU21D;5685;52.384;13.420;2022-08-30T04:05:33;22.50;99.90
11256;HTU21D;5685;52.384;13.420;2022-08-30T04:08:35;22.50;99.90
11256;HTU21D;5685;52.384;13.420;2022-08-30T04:11:39;22.50;99.90
11256;HTU21D;5685;52.384;13.420;2022-08-30T04:14:42;22.50;99.90
11256;HTU21D;5685;52.384;13.420;2022-08-30T04:17:45;22.50;99.90
11256;HTU21D;5685;52.384;13.420;2022-08-30T04:20:47;22.50;99.90
11256;HTU21D;5685;52.384;13.420;2022-08-30T04:23:50;22.50;99.90
11256;HTU21D;5685;52.384;13.420;2022-08-30T04:26:54;22.50;99.90
11256;HTU21D;5685;52.384;13.420;2022-08-30T04:29:57;22.50;99.90
11256;HTU21D;5685;52.384;13.420;2022-08-30T04:33:00;22.50;99.90
11256;HTU21D;5685;52.384;13.420;2022-08-30T04:36:05;22.50;99.90
11256;HTU21D;5685;52.384;13.420;2022-08-30T04:39:09;22.50;99.90
11256;HTU21D;5685;52.384;13.420;2022-08-30T04:42:13;22.50;99.90
11256;HTU21D;5685;52.384;13.420;2022-08-30T04:45:16;22.50;99.90
11256;HTU21D;5685;52.384;13.420;2022-08-30T04:48:18;22.50;99.90
11256;HTU21D;5685;52.384;13.420;2022-08-30T04:51:21;22.50;99.90
11256;HTU21D;5685;52.384;13.420;2022-08-30T04:54:24;22.50;99.90
11256;HTU21D;5685;52.384;13.420;2022-08-30T04:57:27;22.50;99.90
11256;HTU21D;5685;52.384;13.420;2022-08-30T05:00:30;22.40;99.90
11256;HTU21D;5685;52.384;13.420;2022-08-30T05:03:32;22.50;99.90
11256;HTU21D;5685;52.384;13.420;2022-08-30T05:06:34;22.40;99.90
11256;HTU21D;5685;52.384;13.420;2022-08-30T05:09:36;22.50;99.90
11256;HTU21D;5685;52.384;13.420;2022-08-30T05:12:41;22.40;99.90
11256;HTU21D;5685;52.384;13.420;2022-08-30T05:15:43;22.40;99.90
11256;HTU21D;5685;52.384;13.420;2022-08-30T05:18:47;22.40;99.90
11256;HTU21D;5685;52.384;13.420;2022-08-30T05:21:50;22.50;99.90
11256;HTU21D;5685;52.384;13.420;2022-08-30T05:24:52;22.40;99.90
11256;HTU21D;5685;52.384;13.420;2022-08-30T05:27:56;22.40;99.90
11256;HTU21D;5685;52.384;13.420;2022-08-30T05:30:58;22.40;99.90
11256;HTU21D;5685;52.384;13.420;2022-08-30T05:34:02;22.40;99.90
11256;HTU21D;5685;52.384;13.420;2022-08-30T05:37:04;22.40;99.90
11256;HTU21D;5685;52.384;13.420;2022-08-30T05:40:08;22.40;99.90
11256;HTU21D;5685;52.384;13.420;2022-08-30T05:43:12;22.40;99.90
11256;HTU21D;5685;52.384;13.420;2022-08-30T05:46:15;22.40;99.90
11256;HTU21D;5685;52.384;13.420;2022-08-30T05:49:18;22.40;99.90
11256;HTU21D;5685;52.384;13.420;2022-08-30T05:52:21;22.40;99.90
11256;HTU21D;5685;52.384;13.420;2022-08-30T05:55:23;22.40;99.90
11256;HTU21D;5685;52.384;13.420;2022-08-30T05:58:27;22.40;99.90
11256;HTU21D;5685;52.384;13.420;2022-08-30T06:01:30;22.40;99.90
11256;HTU21D;5685;52.384;13.420;2022-08-30T06:04:35;22.50;99.90
11256;HTU21D;5685;52.384;13.420;2022-08-30T06:07:37;22.50;99.90
11256;HTU21D;5685;52.384;13.420;2022-08-30T06:10:39;22.40;99.90
11256;HTU21D;5685;52.384;13.420;2022-08-30T06:13:43;22.40;99.90
11256;HTU21D;5685;52.384;13.420;2022-08-30T06:16:45;22.40;99.90
11256;HTU21D;5685;52.384;13.420;2022-08-30T06:19:47;22.40;99.90
11256;HTU21D;5685;52.384;13.420;2022-08-30T06:22:49;22.40;99.90
11256;HTU21D;5685;52.384;13.420;2022-08-30T06:25:51;22.40;99.90
11256;HTU21D;5685;52.384;13.420;2022-08-30T06:28:55;22.40;99.90
11256;HTU21D;5685;52.384;13.420;2022-08-30T06:31:57;22.40;99.90
11256;HTU21D;5685;52.384;13.420;2022-08-30T06:34:59;22.40;99.90
11256;HTU21D;5685;52.384;13.420;2022-08-30T06:38:02;22.40;99.90
11256;HTU21D;5685;52.384;13.420;2022-08-30T06:41:04;22.40;99.90
11256;HTU21D;5685;52.384;13.420;2022-08-30T06:44:08;22.30;99.90
11256;HTU21D;5685;52.384;13.420;2022-08-30T06:47:10;22.30;99.90
11256;HTU21D;5685;52.384;13.420;2022-08-30T06:50:15;22.30;99.90
11256;HTU21D;5685;52.384;13.420;2022-08-30T06:53:18;22.30;99.90
11256;HTU21D;5685;52.384;13.420;2022-08-30T06:56:21;22.30;99.90
11256;HTU21D;5685;52.384;13.420;2022-08-30T06:59:25;22.30;99.90
11256;HTU21D;5685;52.384;13.420;2022-08-30T07:02:27;22.30;99.90
11256;HTU21D;5685;52.384;13.420;2022-08-30T07:05:29;22.30;99.90
11256;HTU21D;5685;52.384;13.420;2022-08-30T07:08:31;22.30;99.90
11256;HTU21D;5685;52.384;13.420;2022-08-30T07:11:36;22.30;99.90
11256;HTU21D;5685;52.384;13.420;2022-08-30T07:14:39;22.30;99.90
11256;HTU21D;5685;52.384;13.420;2022-08-30T07:17:42;22.30;99.90
11256;HTU21D;5685;52.384;13.420;2022-08-30T07:21:07;22.30;99.90
11256;HTU21D;5685;52.384;13.420;2022-08-30T07:24:10;22.30;99.90
11256;HTU21D;5685;52.384;13.420;2022-08-30T07:27:14;22.30;99.90
11256;HTU21D;5685;52.384;13.420;2022-08-30T07:30:18;22.30;99.90
11256;HTU21D;5685;52.384;13.420;2022-08-30T07:33:20;22.30;99.90
11256;HTU21D;5685;52.384;13.420;2022-08-30T07:36:23;22.30;99.90
11256;HTU21D;5685;52.384;13.420;2022-08-30T07:39:25;22.30;99.90
11256;HTU21D;5685;52.384;13.420;2022-08-30T07:42:27;22.30;99.90
11256;HTU21D;5685;52.384;13.420;2022-08-30T07:45:31;22.30;99.90
11256;HTU21D;5685;52.384;13.420;2022-08-30T07:48:34;22.30;99.90
11256;HTU21D;5685;52.384;13.420;2022-08-30T07:51:38;22.30;99.90
11256;HTU21D;5685;52.384;13.420;2022-08-30T07:54:41;22.30;99.90
11256;HTU21D;5685;52.384;13.420;2022-08-30T07:57:43;22.30;99.90
11256;HTU21D;5685;52.384;13.420;2022-08-30T08:00:47;22.30;99.90
11256;HTU21D;5685;52.384;13.420;2022-08-30T08:03:50;22.30;99.90
11256;HTU21D;5685;52.384;13.420;2022-08-30T08:06:53;22.30;99.90
11256;HTU21D;5685;52.384;13.420;2022-08-30T08:09:55;22.30;99.90
11256;HTU21D;5685;52.384;13.420;2022-08-30T08:12:58;22.30;99.90
11256;HTU21D;5685;52.384;13.420;2022-08-30T08:16:02;22.30;99.90
11256;HTU21D;5685;52.384;13.420;2022-08-30T08:19:04;22.30;99.90
11256;HTU21D;5685;52.384;13.420;2022-08-30T08:22:08;22.30;99.90
11256;HTU21D;5685;52.384;13.420;2022-08-30T08:25:11;22.30;99.90
11256;HTU21D;5685;52.384;13.420;2022-08-30T08:28:15;22.30;99.90
11256;HTU21D;5685;52.384;13.420;2022-08-30T08:31:21;22.30;99.90
11256;HTU21D;5685;52.384;13.420;2022-08-30T08:34:24;22.30;99.90
11256;HTU21D;5685;52.384;13.420;2022-08-30T08:37:27;22.30;99.90
11256;HTU21D;5685;52.384;13.420;2022-08-30T08:40:37;22.30;99.90
11256;HTU21D;5685;52.384;13.420;2022-08-30T08:43:44;22.30;99.90
11256;HTU21D;5685;52.384;13.420;2022-08-30T08:46:54;22.30;99.90
11256;HTU21D;5685;52.384;13.420;2022-08-30T08:50:03;22.30;99.90
11256;HTU21D;5685;52.384;13.420;2022-08-30T08:53:13;22.30;99.90
11256;HTU21D;5685;52.384;13.420;2022-08-30T08:56:36;22.30;99.90
11256;HTU21D;5685;52.384;13.420;2022-08-30T08:59:39;22.30;99.90
11256;HTU21D;5685;52.384;13.420;2022-08-30T09:02:44;22.30;99.90
11256;HTU21D;5685;52.384;13.420;2022-08-30T09:05:48;22.30;99.90
11256;HTU21D;5685;52.384;13.420;2022-08-30T09:08:51;22.30;99.90
11256;HTU21D;5685;52.384;13.420;2022-08-30T09:11:53;22.30;99.90
11256;HTU21D;5685;52.384;13.420;2022-08-30T09:15:01;22.30;99.90
11256;HTU21D;5685;52.384;13.420;2022-08-30T09:18:08;22.30;99.90
11256;HTU21D;5685;52.384;13.420;2022-08-30T09:21:10;22.30;99.90
11256;HTU21D;5685;52.384;13.420;2022-08-30T09:24:14;22.30;99.90
11256;HTU21D;5685;52.384;13.420;2022-08-30T09:27:21;22.30;99.90
11256;HTU21D;5685;52.384;13.420;2022-08-30T09:30:26;22.30;99.90
11256;HTU21D;5685;52.384;13.420;2022-08-30T09:33:33;22.30;99.90
11256;HTU21D;5685;52.384;13.420;2022-08-30T09:36:40;22.30;99.90
11256;HTU21D;5685;52.384;13.420;2022-08-30T09:39:44;22.40;99.90
11256;HTU21D;5685;52.384;13.420;2022-08-30T09:43:05;22.40;99.90
11256;HTU21D;5685;52.384;13.420;2022-08-30T09:46:10;22.40;99.90
11256;HTU21D;5685;52.384;13.420;2022-08-30T09:49:32;22.40;99.90
11256;HTU21D;5685;52.384;13.420;2022-08-30T09:52:46;22.30;99.90
11256;HTU21D;5685;52.384;13.420;2022-08-30T09:56:02;22.40;99.90
11256;HTU21D;5685;52.384;13.420;2022-08-30T09:59:14;22.40;99.90
11256;HTU21D;5685;52.384;13.420;2022-08-30T10:02:40;22.40;99.90
11256;HTU21D;5685;52.384;13.420;2022-08-30T10:05:56;22.40;99.90
11256;HTU21D;5685;52.384;13.420;2022-08-30T10:09:14;22.40;99.90
11256;HTU21D;5685;52.384;13.420;2022-08-30T10:12:26;22.40;99.90
11256;HTU21D;5685;52.384;13.420;2022-08-30T10:15:34;22.40;99.90
11256;HTU21D;5685;52.384;13.420;2022-08-30T10:18:42;22.40;99.90
11256;HTU21D;5685;52.384;13.420;2022-08-30T10:21:58;22.40;99.90
11256;HTU21D;5685;52.384;13.420;2022-08-30T10:25:08;22.40;99.90
11256;HTU21D;5685;52.384;13.420;2022-08-30T10:28:15;22.40;99.90
11256;HTU21D;5685;52.384;13.420;2022-08-30T10:31:26;22.40;99.90
11256;HTU21D;5685;52.384;13.420;2022-08-30T10:34:35;22.40;99.90
11256;HTU21D;5685;52.384;13.420;2022-08-30T10:37:45;22.40;99.90
11256;HTU21D;5685;52.384;13.420;2022-08-30T10:40:52;22.40;99.90
11256;HTU21D;5685;52.384;13.420;2022-08-30T10:44:20;22.40;99.90
11256;HTU21D;5685;52.384;13.420;2022-08-30T10:47:29;22.50;99.90
11256;HTU21D;5685;52.384;13.420;2022-08-30T10:50:40;22.50;99.90
11256;HTU21D;5685;52.384;13.420;2022-08-30T10:53:49;22.40;99.90
11256;HTU21D;5685;52.384;13.420;2022-08-30T10:56:54;22.50;99.90
11256;HTU21D;5685;52.384;13.420;2022-08-30T10:59:59;22.50;99.90
11256;HTU21D;5685;52.384;13.420;2022-08-30T11:07:13;22.50;99.90
11256;HTU21D;5685;52.384;13.420;2022-08-30T11:10:33;22.50;99.90
11256;HTU21D;5685;52.384;13.420;2022-08-30T11:13:45;22.50;99.90
11256;HTU21D;5685;52.384;13.420;2022-08-30T11:16:50;22.50;99.90
11256;HTU21D;5685;52.384;13.420;2022-08-30T11:19:56;22.50;99.90
11256;HTU21D;5685;52.384;13.420;2022-08-30T11:23:33;22.50;99.90
11256;HTU21D;5685;52.384;13.420;2022-08-30T11:26:59;22.50;99.90
11256;HTU21D;5685;52.384;13.420;2022-08-30T11:33:49;22.50;99.90
11256;HTU21D;5685;52.384;13.420;2022-08-30T11:37:03;22.50;99.90
11256;HTU21D;5685;52.384;13.420;2022-08-30T11:43:55;22.50;99.90
11256;HTU21D;5685;52.384;13.420;2022-08-30T11:47:37;22.50;99.90
11256;HTU21D;5685;52.384;13.420;2022-08-30T11:50:51;22.50;99.90
11256;HTU21D;5685;52.384;13.420;2022-08-30T11:54:00;22.60;99.90
11256;HTU21D;5685;52.384;13.420;2022-08-30T11:57:15;22.60;99.90
11256;HTU21D;5685;52.384;13.420;2022-08-30T12:00:29;22.60;99.90
11256;HTU21D;5685;52.384;13.420;2022-08-30T12:03:33;22.60;99.90
11256;HTU21D;5685;52.384;13.420;2022-08-30T12:06:48;22.60;99.90
11256;HTU21D;5685;52.384;13.420;2022-08-30T12:09:59;22.60;99.90
11256;HTU21D;5685;52.384;13.420;2022-08-30T12:13:03;22.60;99.90
11256;HTU21D;5685;52.384;13.420;2022-08-30T12:16:08;22.60;99.90
11256;HTU21D;5685;52.384;13.420;2022-08-30T12:19:16;22.60;99.90
11256;HTU21D;5685;52.384;13.420;2022-08-30T12:22:21;22.60;99.90
11256;HTU21D;5685;52.384;13.420;2022-08-30T12:25:28;22.60;99.90
11256;HTU21D;5685;52.384;13.420;2022-08-30T12:28:31;22.60;99.90
11256;HTU21D;5685;52.384;13.420;2022-08-30T12:31:38;22.60;99.90
11256;HTU21D;5685;52.384;13.420;2022-08-30T12:34:49;22.60;99.90
11256;HTU21D;5685;52.384;13.420;2022-08-30T12:37:57;22.60;99.90
11256;HTU21D;5685;52.384;13.420;2022-08-30T12:41:01;22.60;99.90
11256;HTU21D;5685;52.384;13.420;2022-08-30T12:44:07;22.70;99.90
11256;HTU21D;5685;52.384;13.420;2022-08-30T12:47:17;22.60;99.90
11256;HTU21D;5685;52.384;13.420;2022-08-30T12:50:25;22.70;99.90
11256;HTU21D;5685;52.384;13.420;2022-08-30T12:53:30;22.70;99.90
11256;HTU21D;5685;52.384;13.420;2022-08-30T12:56:58;22.70;99.90
11256;HTU21D;5685;52.384;13.420;2022-08-30T13:00:03;22.70;99.90
11256;HTU21D;5685;52.384;13.420;2022-08-30T13:06:50;22.70;99.90
11256;HTU21D;5685;52.384;13.420;2022-08-30T13:10:12;22.70;99.90
11256;HTU21D;5685;52.384;13.420;2022-08-30T13:13:31;22.70;99.90
11256;HTU21D;5685;52.384;13.420;2022-08-30T13:16:38;22.70;99.90
11256;HTU21D;5685;52.384;13.420;2022-08-30T13:19:42;22.70;99.90
11256;HTU21D;5685;52.384;13.420;2022-08-30T13:23:00;22.70;99.90
11256;HTU21D;5685;52.384;13.420;2022-08-30T13:26:07;22.70;99.90
11256;HTU21D;5685;52.384;13.420;2022-08-30T13:29:14;22.80;99.90
11256;HTU21D;5685;52.384;13.420;2022-08-30T13:32:17;22.80;99.90
11256;HTU21D;5685;52.384;13.420;2022-08-30T13:35:20;22.80;99.90
11256;HTU21D;5685;52.384;13.420;2022-08-30T13:38:24;22.80;99.90
11256;HTU21D;5685;52.384;13.420;2022-08-30T13:41:26;22.80;99.90
11256;HTU21D;5685;52.384;13.420;2022-08-30T13:44:29;22.80;99.90
11256;HTU21D;5685;52.384;13.420;2022-08-30T13:47:31;22.80;99.90
11256;HTU21D;5685;52.384;13.420;2022-08-30T13:50:34;22.80;99.90
11256;HTU21D;5685;52.384;13.420;2022-08-30T13:53:37;22.80;99.90
11256;HTU21D;5685;52.384;13.420;2022-08-30T13:56:40;22.80;99.90
11256;HTU21D;5685;52.384;13.420;2022-08-30T13:59:42;22.80;99.90
11256;HTU21D;5685;52.384;13.420;2022-08-30T14:02:44;22.80;99.90
11256;HTU21D;5685;52.384;13.420;2022-08-30T14:05:47;22.80;99.90
11256;HTU21D;5685;52.384;13.420;2022-08-30T14:08:51;22.80;99.90
11256;HTU21D;5685;52.384;13.420;2022-08-30T14:11:53;22.80;99.90
11256;HTU21D;5685;52.384;13.420;2022-08-30T14:14:56;22.80;99.90
11256;HTU21D;5685;52.384;13.420;2022-08-30T14:17:58;22.90;99.90
11256;HTU21D;5685;52.384;13.420;2022-08-30T14:21:00;22.90;99.90
11256;HTU21D;5685;52.384;13.420;2022-08-30T14:24:04;22.90;99.90
11256;HTU21D;5685;52.384;13.420;2022-08-30T14:27:07;22.80;99.90
11256;HTU21D;5685;52.384;13.420;2022-08-30T14:30:10;22.90;99.90
11256;HTU21D;5685;52.384;13.420;2022-08-30T14:33:13;22.90;99.90
11256;HTU21D;5685;52.384;13.420;2022-08-30T14:36:16;22.90;99.90
11256;HTU21D;5685;52.384;13.420;2022-08-30T14:39:20;22.90;99.90
11256;HTU21D;5685;52.384;13.420;2022-08-30T14:42:23;22.90;99.90
11256;HTU21D;5685;52.384;13.420;2022-08-30T14:45:25;22.90;99.90
11256;HTU21D;5685;52.384;13.420;2022-08-30T14:48:27;22.90;99.90
11256;HTU21D;5685;52.384;13.420;2022-08-30T14:51:29;22.90;99.90
11256;HTU21D;5685;52.384;13.420;2022-08-30T14:54:33;22.90;99.90
11256;HTU21D;5685;52.384;13.420;2022-08-30T14:57:35;22.90;99.90
11256;HTU21D;5685;52.384;13.420;2022-08-30T15:00:38;22.90;99.90
11256;HTU21D;5685;52.384;13.420;2022-08-30T15:03:40;22.90;99.90
11256;HTU21D;5685;52.384;13.420;2022-08-30T15:06:45;22.90;99.90
11256;HTU21D;5685;52.384;13.420;2022-08-30T15:09:49;23.00;99.90
11256;HTU21D;5685;52.384;13.420;2022-08-30T15:12:52;23.00;99.90
11256;HTU21D;5685;52.384;13.420;2022-08-30T15:15:54;22.90;99.90
11256;HTU21D;5685;52.384;13.420;2022-08-30T15:18:57;23.00;99.90
11256;HTU21D;5685;52.384;13.420;2022-08-30T15:22:02;22.90;99.90
11256;HTU21D;5685;52.384;13.420;2022-08-30T15:25:08;23.00;99.90
11256;HTU21D;5685;52.384;13.420;2022-08-30T15:28:10;22.90;99.90
11256;HTU21D;5685;52.384;13.420;2022-08-30T15:31:13;23.00;99.90
11256;HTU21D;5685;52.384;13.420;2022-08-30T15:34:17;23.00;99.90
11256;HTU21D;5685;52.384;13.420;2022-08-30T15:37:21;23.00;99.90
11256;HTU21D;5685;52.384;13.420;2022-08-30T15:40:25;23.00;99.90
11256;HTU21D;5685;52.384;13.420;2022-08-30T15:43:29;23.00;99.90
11256;HTU21D;5685;52.384;13.420;2022-08-30T15:46:33;23.00;99.90
11256;HTU21D;5685;52.384;13.420;2022-08-30T15:49:37;23.00;99.90
11256;HTU21D;5685;52.384;13.420;2022-08-30T15:52:39;23.00;99.90
11256;HTU21D;5685;52.384;13.420;2022-08-30T15:55:43;23.00;99.90
11256;HTU21D;5685;52.384;13.420;2022-08-30T15:58:47;23.00;99.90
11256;HTU21D;5685;52.384;13.420;2022-08-30T16:01:50;23.10;99.90
11256;HTU21D;5685;52.384;13.420;2022-08-30T16:04:52;23.10;99.90
11256;HTU21D;5685;52.384;13.420;2022-08-30T16:07:54;23.10;99.90
11256;HTU21D;5685;52.384;13.420;2022-08-30T16:10:58;23.10;99.90
11256;HTU21D;5685;52.384;13.420;2022-08-30T16:14:00;23.10;99.90
11256;HTU21D;5685;52.384;13.420;2022-08-30T16:17:03;23.00;99.90
11256;HTU21D;5685;52.384;13.420;2022-08-30T16:20:07;23.10;99.90
11256;HTU21D;5685;52.384;13.420;2022-08-30T16:23:10;23.10;99.90
11256;HTU21D;5685;52.384;13.420;2022-08-30T16:26:15;23.10;99.90
11256;HTU21D;5685;52.384;13.420;2022-08-30T16:29:19;23.10;99.90
11256;HTU21D;5685;52.384;13.420;2022-08-30T16:32:21;23.10;99.90
11256;HTU21D;5685;52.384;13.420;2022-08-30T16:35:24;23.10;99.90
11256;HTU21D;5685;52.384;13.420;2022-08-30T16:38:26;23.10;99.90
11256;HTU21D;5685;52.384;13.420;2022-08-30T16:41:30;23.10;99.90
11256;HTU21D;5685;52.384;13.420;2022-08-30T16:44:33;23.10;99.90
11256;HTU21D;5685;52.384;13.420;2022-08-30T16:47:35;23.10;99.90
11256;HTU21D;5685;52.384;13.420;2022-08-30T16:50:41;23.10;99.90
11256;HTU21D;5685;52.384;13.420;2022-08-30T16:53:44;23.10;99.90
11256;HTU21D;5685;52.384;13.420;2022-08-30T16:56:48;23.10;99.90
11256;HTU21D;5685;52.384;13.420;2022-08-30T16:59:51;23.10;99.90
11256;HTU21D;5685;52.384;13.420;2022-08-30T17:02:53;23.10;99.90
11256;HTU21D;5685;52.384;13.420;2022-08-30T17:05:56;23.10;99.90
11256;HTU21D;5685;52.384;13.420;2022-08-30T17:08:59;23.10;99.90
11256;HTU21D;5685;52.384;13.420;2022-08-30T17:12:03;23.20;99.90
11256;HTU21D;5685;52.384;13.420;2022-08-30T17:15:07;23.20;99.90
11256;HTU21D;5685;52.384;13.420;2022-08-30T17:18:10;23.20;99.90
11256;HTU21D;5685;52.384;13.420;2022-08-30T17:21:13;23.10;99.90
11256;HTU21D;5685;52.384;13.420;2022-08-30T17:24:15;23.20;99.90
11256;HTU21D;5685;52.384;13.420;2022-08-30T17:27:19;23.20;99.90
11256;HTU21D;5685;52.384;13.420;2022-08-30T17:30:21;23.20;99.90
11256;HTU21D;5685;52.384;13.420;2022-08-30T17:33:24;23.20;99.90
11256;HTU21D;5685;52.384;13.420;2022-08-30T17:36:26;23.20;99.90
11256;HTU21D;5685;52.384;13.420;2022-08-30T17:39:29;23.20;99.90
11256;HTU21D;5685;52.384;13.420;2022-08-30T17:42:33;23.20;99.90
11256;HTU21D;5685;52.384;13.420;2022-08-30T17:45:36;23.20;99.90
11256;HTU21D;5685;52.384;13.420;2022-08-30T17:48:39;23.20;99.90
11256;HTU21D;5685;52.384;13.420;2022-08-30T17:51:41;23.20;99.90
11256;HTU21D;5685;52.384;13.420;2022-08-30T17:54:45;23.20;99.90
11256;HTU21D;5685;52.384;13.420;2022-08-30T17:57:51;23.20;99.90
11256;HTU21D;5685;52.384;13.420;2022-08-30T18:01:03;23.20;99.90
11256;HTU21D;5685;52.384;13.420;2022-08-30T18:04:07;23.20;99.90
11256;HTU21D;5685;52.384;13.420;2022-08-30T18:07:09;23.20;99.90
11256;HTU21D;5685;52.384;13.420;2022-08-30T18:10:12;23.20;99.90
11256;HTU21D;5685;52.384;13.420;2022-08-30T18:13:15;23.20;99.90
11256;HTU21D;5685;52.384;13.420;2022-08-30T18:16:18;23.20;99.90
11256;HTU21D;5685;52.384;13.420;2022-08-30T18:19:20;23.20;99.90
11256;HTU21D;5685;52.384;13.420;2022-08-30T18:22:23;23.20;99.90
11256;HTU21D;5685;52.384;13.420;2022-08-30T18:25:25;23.20;99.90
11256;HTU21D;5685;52.384;13.420;2022-08-30T18:28:29;23.20;99.90
11256;HTU21D;5685;52.384;13.420;2022-08-30T18:31:32;23.20;99.90
11256;HTU21D;5685;52.384;13.420;2022-08-30T18:34:34;23.20;99.90
11256;HTU21D;5685;52.384;13.420;2022-08-30T18:37:36;23.20;99.90
11256;HTU21D;5685;52.384;13.420;2022-08-30T18:40:39;23.20;99.90
11256;HTU21D;5685;52.384;13.420;2022-08-30T18:43:43;23.20;99.90
11256;HTU21D;5685;52.384;13.420;2022-08-30T18:46:45;23.20;99.90
11256;HTU21D;5685;52.384;13.420;2022-08-30T18:49:48;23.20;99.90
11256;HTU21D;5685;52.384;13.420;2022-08-30T18:52:50;23.20;99.90
11256;HTU21D;5685;52.384;13.420;2022-08-30T18:55:53;23.20;99.90
11256;HTU21D;5685;52.384;13.420;2022-08-30T18:58:57;23.20;99.90
11256;HTU21D;5685;52.384;13.420;2022-08-30T19:01:59;23.20;99.90
11256;HTU21D;5685;52.384;13.420;2022-08-30T19:05:02;23.20;99.90
11256;HTU21D;5685;52.384;13.420;2022-08-30T19:08:05;23.20;99.90
11256;HTU21D;5685;52.384;13.420;2022-08-30T19:11:08;23.20;99.90
11256;HTU21D;5685;52.384;13.420;2022-08-30T19:14:12;23.20;99.90
11256;HTU21D;5685;52.384;13.420;2022-08-30T19:17:14;23.20;99.90
11256;HTU21D;5685;52.384;13.420;2022-08-30T19:20:19;23.20;99.90
11256;HTU21D;5685;52.384;13.420;2022-08-30T19:23:22;23.20;99.90